createdAt,value
2024-02-01T00:00:43.902Z,3.03
2024-02-01T00:03:30.397Z,2.97
2024-02-01T00:06:17.528Z,3.13
2024-02-01T00:09:04.129Z,3.00
2024-02-01T00:11:50.821Z,4.37
2024-02-01T00:14:37.581Z,3.03
2024-02-01T00:17:26.773Z,3.33
2024-02-01T00:20:13.909Z,3.13
2024-02-01T00:23:00.684Z,3.17
2024-02-01T00:25:46.920Z,2.77
2024-02-01T00:28:33.881Z,3.10
2024-02-01T00:31:20.624Z,3.27
2024-02-01T00:34:08.462Z,3.23
2024-02-01T00:36:55.144Z,3.20
2024-02-01T00:39:41.826Z,3.33
2024-02-01T00:42:28.623Z,2.90
2024-02-01T00:45:15.082Z,3.40
2024-02-01T00:48:01.958Z,3.07
2024-02-01T00:50:50.026Z,2.93
2024-02-01T00:53:36.404Z,3.13
2024-02-01T00:56:22.697Z,2.93
2024-02-01T00:59:09.461Z,3.10
2024-02-01T01:01:55.954Z,3.13
2024-02-01T01:04:42.517Z,3.10
2024-02-01T01:07:30.722Z,3.27
2024-02-01T01:10:17.644Z,2.90
2024-02-01T01:13:04.548Z,2.93
2024-02-01T01:15:51.124Z,3.20
2024-02-01T01:18:37.646Z,3.57
2024-02-01T01:21:24.533Z,3.03
2024-02-01T01:24:12.481Z,3.10
2024-02-01T01:26:59.351Z,3.23
2024-02-01T01:29:46.081Z,3.20
2024-02-01T01:32:34.086Z,2.87
2024-02-01T01:35:20.956Z,4.00
2024-02-01T01:38:07.524Z,2.90
2024-02-01T01:40:55.371Z,3.03
2024-02-01T01:43:42.066Z,3.40
2024-02-01T01:46:28.716Z,3.50
2024-02-01T01:49:18.861Z,3.07
2024-02-01T01:52:06.734Z,3.13
2024-02-01T01:54:54.450Z,3.00
2024-02-01T01:57:42.638Z,3.10
2024-02-01T02:00:29.174Z,3.20
2024-02-01T02:03:16.146Z,3.47
2024-02-01T02:06:02.536Z,2.93
2024-02-01T02:08:49.498Z,3.40
2024-02-01T02:11:36.054Z,3.07
2024-02-01T02:14:23.829Z,2.80
2024-02-01T02:17:10.240Z,3.17
2024-02-01T02:19:57.280Z,3.53
2024-02-01T02:22:46.337Z,3.37
2024-02-01T02:25:32.781Z,2.70
2024-02-01T02:28:19.222Z,3.23
2024-02-01T02:31:06.537Z,3.03
2024-02-01T02:33:53.386Z,3.13
2024-02-01T02:36:40.580Z,2.90
2024-02-01T02:39:28.878Z,3.40
2024-02-01T02:42:15.683Z,3.07
2024-02-01T02:45:02.195Z,3.20
2024-02-01T02:47:49.216Z,3.37
2024-02-01T02:50:36.123Z,3.13
2024-02-01T02:53:22.456Z,3.30
2024-02-01T02:56:10.969Z,3.70
2024-02-01T02:58:57.645Z,3.57
2024-02-01T03:01:44.283Z,3.47
2024-02-01T03:04:30.618Z,3.80
2024-02-01T03:07:17.392Z,4.07
2024-02-01T03:10:06.128Z,3.73
2024-02-01T03:12:54.138Z,3.50
2024-02-01T03:15:40.897Z,3.40
2024-02-01T03:18:27.967Z,3.50
2024-02-01T03:21:15.151Z,3.63
2024-02-01T03:24:03.817Z,3.70
2024-02-01T03:26:50.777Z,4.00
2024-02-01T03:29:38.375Z,3.60
2024-02-01T03:32:31.076Z,3.73
2024-02-01T03:35:17.722Z,3.63
2024-02-01T03:38:04.265Z,4.00
2024-02-01T03:40:50.895Z,4.27
2024-02-01T03:43:37.473Z,4.13
2024-02-01T03:46:28.096Z,3.90
2024-02-01T03:49:15.550Z,3.83
2024-02-01T03:52:02.358Z,4.20
2024-02-01T03:54:49.765Z,4.50
2024-02-01T03:57:42.009Z,4.20
2024-02-01T04:00:30.442Z,3.70
2024-02-01T04:03:19.807Z,3.90
2024-02-01T04:06:06.807Z,4.67
2024-02-01T04:08:53.673Z,4.17
2024-02-01T04:11:40.313Z,3.93
2024-02-01T04:14:27.028Z,3.93
2024-02-01T04:17:14.172Z,4.07
2024-02-01T04:20:02.483Z,4.07
2024-02-01T04:22:54.572Z,3.93
2024-02-01T04:25:41.742Z,4.00
2024-02-01T04:28:28.187Z,4.00
2024-02-01T04:31:14.728Z,4.13
2024-02-01T04:34:01.722Z,3.80
2024-02-01T04:36:49.981Z,4.20
2024-02-01T04:39:36.448Z,4.20
2024-02-01T04:42:24.868Z,4.43
2024-02-01T04:45:12.247Z,4.03
2024-02-01T04:47:59.044Z,3.90
2024-02-01T04:50:46.298Z,3.80
2024-02-01T04:53:34.230Z,4.13
2024-02-01T04:56:20.668Z,3.70
2024-02-01T04:59:07.210Z,4.33
2024-02-01T05:01:53.868Z,4.00
2024-02-01T05:04:40.297Z,4.40
2024-02-01T05:07:26.811Z,3.97
2024-02-01T05:10:15.373Z,3.90
2024-02-01T05:13:03.558Z,3.43
2024-02-01T05:15:50.138Z,3.83
2024-02-01T05:18:37.140Z,3.80
2024-02-01T05:21:24.066Z,3.47
2024-02-01T05:24:14.392Z,3.53
2024-02-01T05:27:09.108Z,4.80
2024-02-01T05:29:56.044Z,4.87
2024-02-01T05:32:49.468Z,5.53
2024-02-01T05:35:36.548Z,7.27
2024-02-01T05:38:23.076Z,8.33
2024-02-01T05:41:13.541Z,4.93
2024-02-01T05:44:01.382Z,5.53
2024-02-01T05:46:48.154Z,7.87
2024-02-01T05:49:35.463Z,4.57
2024-02-01T05:52:22.108Z,5.00
2024-02-01T05:55:10.937Z,4.30
2024-02-01T05:57:57.432Z,5.97
2024-02-01T06:00:45.278Z,4.33
2024-02-01T06:03:32.344Z,3.50
2024-02-01T06:06:19.032Z,3.90
2024-02-01T06:09:07.182Z,3.73
2024-02-01T06:11:53.594Z,3.37
2024-02-01T06:14:40.140Z,4.10
2024-02-01T06:17:28.199Z,3.60
2024-02-01T06:20:14.931Z,4.03
2024-02-01T06:23:03.806Z,3.60
2024-02-01T06:25:50.358Z,4.07
2024-02-01T06:28:36.920Z,3.43
2024-02-01T06:31:25.006Z,3.80
2024-02-01T06:34:13.588Z,3.40
2024-02-01T06:37:01.561Z,3.80
2024-02-01T06:40:10.608Z,3.60
2024-02-01T06:43:10.292Z,3.83
2024-02-01T06:46:04.327Z,4.63
2024-02-01T06:49:11.097Z,4.37
2024-02-01T06:52:03.802Z,3.70
2024-02-01T06:54:56.913Z,3.67
2024-02-01T06:57:46.364Z,3.90
2024-02-01T07:00:52.093Z,3.90
2024-02-01T07:03:53.025Z,3.87
2024-02-01T07:06:49.700Z,3.43
2024-02-01T07:09:39.326Z,3.37
2024-02-01T07:12:41.400Z,3.60
2024-02-01T07:15:34.993Z,3.73
2024-02-01T07:18:31.845Z,3.70
2024-02-01T07:21:31.410Z,4.17
2024-02-01T07:24:28.982Z,3.60
2024-02-01T07:27:35.359Z,3.60
2024-02-01T07:30:40.050Z,4.27
2024-02-01T07:33:46.342Z,3.60
2024-02-01T07:36:51.511Z,4.63
2024-02-01T07:39:55.901Z,4.00
2024-02-01T07:43:01.718Z,3.67
2024-02-01T07:46:06.211Z,4.80
2024-02-01T07:49:10.930Z,4.17
2024-02-01T07:52:15.397Z,4.47
2024-02-01T07:55:19.776Z,3.50
2024-02-01T07:58:10.050Z,3.87
2024-02-01T08:00:58.186Z,3.53
2024-02-01T08:03:57.157Z,3.77
2024-02-01T08:07:02.412Z,3.80
2024-02-01T08:09:49.326Z,3.80
2024-02-01T08:12:36.333Z,4.00
2024-02-01T08:15:25.279Z,4.00
2024-02-01T08:18:13.384Z,3.27
2024-02-01T08:21:00.302Z,3.70
2024-02-01T08:23:47.848Z,3.80
2024-02-01T08:26:38.793Z,4.50
2024-02-01T08:29:37.009Z,4.57
2024-02-01T08:32:25.610Z,4.27
2024-02-01T08:35:13.734Z,4.43
2024-02-01T08:38:00.691Z,4.37
2024-02-01T08:40:47.569Z,3.90
2024-02-01T08:43:39.480Z,3.80
2024-02-01T08:46:26.135Z,3.80
2024-02-01T08:49:17.534Z,4.30
2024-02-01T08:52:04.856Z,4.90
2024-02-01T08:54:51.380Z,5.77
2024-02-01T08:57:38.057Z,3.87
2024-02-01T09:00:30.668Z,3.73
2024-02-01T09:03:30.534Z,3.70
2024-02-01T09:06:20.362Z,3.50
2024-02-01T09:09:27.054Z,3.33
2024-02-01T09:12:17.871Z,3.20
2024-02-01T09:15:06.447Z,3.00
2024-02-01T09:17:53.572Z,3.17
2024-02-01T09:20:40.413Z,2.60
2024-02-01T09:23:28.900Z,3.07
2024-02-01T09:26:15.983Z,2.70
2024-02-01T09:29:12.297Z,3.10
2024-02-01T09:31:58.980Z,2.53
2024-02-01T09:34:45.707Z,2.57
2024-02-01T09:37:32.966Z,2.47
2024-02-01T09:40:21.992Z,2.23
2024-02-01T09:43:18.184Z,2.43
2024-02-01T09:46:08.109Z,2.67
2024-02-01T09:48:56.546Z,2.53
2024-02-01T09:51:47.825Z,2.73
2024-02-01T09:54:34.369Z,2.80
2024-02-01T09:57:22.266Z,2.80
2024-02-01T10:00:13.888Z,2.37
2024-02-01T10:03:00.554Z,2.77
2024-02-01T10:05:48.555Z,2.50
2024-02-01T10:08:35.008Z,2.33
2024-02-01T10:11:22.218Z,2.53
2024-02-01T10:14:09.880Z,2.40
2024-02-01T10:16:57.146Z,2.80
2024-02-01T10:19:50.576Z,2.40
2024-02-01T10:22:37.687Z,2.20
2024-02-01T10:25:24.137Z,2.10
2024-02-01T10:28:12.902Z,2.20
2024-02-01T10:31:01.573Z,2.60
2024-02-01T10:33:50.703Z,2.40
2024-02-01T10:36:42.849Z,2.60
2024-02-01T10:39:35.004Z,2.37
2024-02-01T10:42:23.973Z,2.23
2024-02-01T10:45:12.681Z,2.90
2024-02-01T10:48:09.134Z,2.30
2024-02-01T10:50:56.420Z,2.47
2024-02-01T10:53:45.164Z,2.30
2024-02-01T10:56:31.596Z,3.00
2024-02-01T10:59:20.040Z,2.40
2024-02-01T11:02:07.586Z,2.23
2024-02-01T11:04:56.258Z,2.03
2024-02-01T11:07:42.677Z,2.43
2024-02-01T11:10:29.370Z,2.43
2024-02-01T11:13:29.147Z,2.23
2024-02-01T11:16:15.755Z,2.60
2024-02-01T11:19:04.482Z,2.27
2024-02-01T11:21:55.700Z,2.60
2024-02-01T11:24:43.514Z,2.80
2024-02-01T11:27:30.595Z,2.00
2024-02-01T11:30:27.514Z,2.30
2024-02-01T11:33:20.877Z,2.10
2024-02-01T11:36:08.399Z,2.10
2024-02-01T11:38:56.393Z,2.80
2024-02-01T11:41:47.622Z,3.00
2024-02-01T11:44:34.550Z,1.90
2024-02-01T11:47:27.698Z,1.90
2024-02-01T11:50:14.890Z,2.07
2024-02-01T11:53:06.974Z,2.03
2024-02-01T11:55:56.083Z,2.10
2024-02-01T11:58:43.913Z,2.17
2024-02-01T12:01:30.931Z,1.90
2024-02-01T12:04:18.092Z,2.27
2024-02-01T12:07:06.555Z,2.03
2024-02-01T12:09:53.571Z,2.20
2024-02-01T12:12:43.747Z,2.10
2024-02-01T12:15:30.779Z,2.07
2024-02-01T12:18:17.795Z,2.00
2024-02-01T12:21:04.672Z,2.30
2024-02-01T12:23:52.443Z,1.90
2024-02-01T12:26:39.463Z,2.17
2024-02-01T12:29:29.610Z,1.83
2024-02-01T12:32:16.541Z,2.00
2024-02-01T12:35:09.844Z,2.10
2024-02-01T12:37:57.119Z,2.30
2024-02-01T12:40:45.856Z,2.10
2024-02-01T12:43:33.080Z,2.50
2024-02-01T12:46:24.973Z,1.80
2024-02-01T12:49:14.117Z,2.20
2024-02-01T12:52:05.736Z,1.93
2024-02-01T12:54:52.392Z,2.07
2024-02-01T12:57:40.852Z,2.47
2024-02-01T13:00:27.736Z,1.80
2024-02-01T13:03:16.130Z,2.33
2024-02-01T13:06:02.996Z,2.50
2024-02-01T13:08:53.403Z,1.97
2024-02-01T13:11:43.558Z,2.63
2024-02-01T13:14:34.361Z,2.00
2024-02-01T13:17:23.622Z,2.17
2024-02-01T13:20:21.046Z,3.10
2024-02-01T13:23:10.364Z,2.00
2024-02-01T13:25:56.720Z,2.00
2024-02-01T13:28:43.757Z,2.90
2024-02-01T13:31:30.250Z,2.40
2024-02-01T13:34:17.407Z,2.00
2024-02-01T13:37:06.681Z,3.07
2024-02-01T13:39:53.715Z,2.07
2024-02-01T13:42:40.640Z,2.10
2024-02-01T13:45:27.151Z,2.03
2024-02-01T13:48:14.218Z,2.73
2024-02-01T13:51:04.609Z,2.03
2024-02-01T13:53:52.692Z,3.10
2024-02-01T13:56:39.981Z,2.40
2024-02-01T13:59:26.886Z,2.57
2024-02-01T14:02:15.642Z,2.00
2024-02-01T14:05:02.199Z,1.87
2024-02-01T14:07:48.946Z,2.10
2024-02-01T14:10:37.149Z,2.20
2024-02-01T14:13:23.929Z,2.27
2024-02-01T14:16:13.578Z,2.37
2024-02-01T14:18:59.993Z,2.40
2024-02-01T14:21:47.312Z,2.03
2024-02-01T14:24:35.158Z,2.70
2024-02-01T14:27:23.906Z,2.07
2024-02-01T14:30:14.177Z,2.80
2024-02-01T14:33:00.744Z,2.50
2024-02-01T14:35:47.492Z,2.50
2024-02-01T14:38:34.576Z,2.00
2024-02-01T14:41:21.271Z,2.33
2024-02-01T14:44:08.955Z,2.80
2024-02-01T14:46:55.476Z,2.23
2024-02-01T14:49:41.880Z,3.10
2024-02-01T14:52:29.048Z,2.70
2024-02-01T14:55:15.707Z,2.80
2024-02-01T14:58:07.551Z,2.40
2024-02-01T15:00:57.928Z,2.60
2024-02-01T15:03:44.575Z,3.20
2024-02-01T15:06:32.259Z,1.80
2024-02-01T15:09:20.034Z,2.73
2024-02-01T15:12:09.003Z,2.77
2024-02-01T15:14:55.666Z,2.90
2024-02-01T15:17:44.552Z,2.53
2024-02-01T15:20:36.189Z,2.67
2024-02-01T15:23:23.922Z,3.00
2024-02-01T15:26:11.397Z,3.20
2024-02-01T15:28:57.740Z,2.73
2024-02-01T15:31:44.082Z,4.57
2024-02-01T15:34:32.393Z,6.23
2024-02-01T15:37:19.722Z,4.37
2024-02-01T15:40:07.808Z,3.77
2024-02-01T15:42:54.321Z,3.03
2024-02-01T15:45:41.430Z,2.70
2024-02-01T15:48:28.183Z,4.70
2024-02-01T15:51:17.446Z,4.07
2024-02-01T15:54:05.423Z,3.60
2024-02-01T15:56:52.014Z,3.37
2024-02-01T15:59:38.748Z,2.90
2024-02-01T16:02:25.090Z,3.63
2024-02-01T16:05:12.489Z,3.90
2024-02-01T16:08:00.627Z,3.50
2024-02-01T16:10:47.805Z,3.60
2024-02-01T16:13:38.719Z,3.40
2024-02-01T16:16:32.216Z,3.53
2024-02-01T16:19:30.491Z,4.03
2024-02-01T16:22:31.468Z,4.00
2024-02-01T16:25:34.527Z,3.47
2024-02-01T16:28:29.304Z,4.17
2024-02-01T16:31:19.369Z,4.43
2024-02-01T16:34:26.135Z,4.47
2024-02-01T16:37:12.606Z,4.43
2024-02-01T16:39:59.933Z,4.03
2024-02-01T16:42:48.215Z,9.37
2024-02-01T16:45:34.945Z,4.73
2024-02-01T16:48:21.689Z,4.33
2024-02-01T16:51:08.449Z,5.17
2024-02-01T16:53:55.607Z,5.23
2024-02-01T16:56:43.853Z,4.60
2024-02-01T16:59:32.045Z,3.73
2024-02-01T17:02:47.645Z,4.20
2024-02-01T17:05:35.277Z,3.27
2024-02-01T17:08:42.467Z,3.80
2024-02-01T17:11:33.940Z,5.67
2024-02-01T17:14:32.238Z,3.83
2024-02-01T17:17:33.361Z,3.70
2024-02-01T17:20:20.000Z,4.37
2024-02-01T17:23:06.674Z,5.60
2024-02-01T17:26:08.660Z,4.87
2024-02-01T17:28:54.940Z,7.80
2024-02-01T17:31:42.089Z,7.07
2024-02-01T17:34:37.468Z,4.47
2024-02-01T17:37:35.569Z,3.43
2024-02-01T17:40:22.414Z,4.33
2024-02-01T17:43:12.653Z,4.23
2024-02-01T17:46:00.090Z,4.10
2024-02-01T17:48:56.806Z,3.47
2024-02-01T17:51:48.476Z,3.47
2024-02-01T17:54:36.015Z,3.03
2024-02-01T17:57:25.967Z,3.33
2024-02-01T18:00:19.048Z,3.10
2024-02-01T18:03:07.545Z,3.27
2024-02-01T18:05:54.349Z,4.07
2024-02-01T18:08:43.852Z,4.03
2024-02-01T18:11:31.536Z,4.03
2024-02-01T18:14:18.715Z,4.03
2024-02-01T18:17:06.238Z,3.37
2024-02-01T18:19:54.347Z,2.87
2024-02-01T18:22:43.470Z,3.20
2024-02-01T18:25:35.071Z,3.10
2024-02-01T18:28:25.174Z,2.73
2024-02-01T18:31:15.382Z,2.97
2024-02-01T18:34:05.760Z,3.23
2024-02-01T18:36:56.698Z,2.80
2024-02-01T18:39:43.619Z,3.47
2024-02-01T18:42:55.916Z,3.07
2024-02-01T18:45:44.250Z,3.30
2024-02-01T18:48:34.630Z,3.50
2024-02-01T18:51:21.600Z,3.27
2024-02-01T18:54:09.725Z,3.07
2024-02-01T18:56:58.729Z,3.40
2024-02-01T18:59:54.969Z,4.40
2024-02-01T19:02:55.964Z,2.90
2024-02-01T19:05:42.694Z,3.10
2024-02-01T19:08:29.839Z,3.63
2024-02-01T19:11:16.396Z,3.70
2024-02-01T19:14:05.023Z,5.63
2024-02-01T19:16:56.395Z,4.70
2024-02-01T19:19:43.335Z,5.03
2024-02-01T19:22:39.771Z,5.10
2024-02-01T19:25:27.045Z,4.67
2024-02-01T19:28:37.350Z,5.00
2024-02-01T19:31:23.986Z,4.10
2024-02-01T19:34:17.936Z,4.63
2024-02-01T19:37:04.551Z,4.37
2024-02-01T19:39:53.730Z,3.93
2024-02-01T19:42:40.224Z,4.50
2024-02-01T19:45:26.774Z,3.70
2024-02-01T19:48:14.671Z,4.40
2024-02-01T19:51:02.575Z,4.03
2024-02-01T19:53:49.273Z,4.73
2024-02-01T19:56:35.862Z,4.37
2024-02-01T19:59:22.217Z,3.97
2024-02-01T20:02:08.624Z,4.20
2024-02-01T20:04:55.364Z,3.63
2024-02-01T20:07:43.045Z,4.20
2024-02-01T20:10:30.200Z,3.97
2024-02-01T20:13:17.304Z,4.37
2024-02-01T20:16:03.887Z,4.07
2024-02-01T20:18:51.664Z,4.00
2024-02-01T20:21:38.654Z,3.73
2024-02-01T20:24:27.053Z,4.90
2024-02-01T20:27:20.758Z,3.60
2024-02-01T20:30:10.449Z,4.37
2024-02-01T20:32:59.716Z,3.67
2024-02-01T20:35:46.650Z,3.47
2024-02-01T20:38:33.685Z,3.03
2024-02-01T20:41:21.595Z,3.17
2024-02-01T20:44:14.701Z,3.60
2024-02-01T20:47:04.411Z,4.13
2024-02-01T20:49:51.511Z,3.73
2024-02-01T20:52:39.505Z,3.80
2024-02-01T20:55:28.642Z,3.93
2024-02-01T20:58:33.138Z,3.47
2024-02-01T21:01:21.329Z,3.93
2024-02-01T21:04:22.120Z,3.23
2024-02-01T21:07:16.709Z,3.30
2024-02-01T21:10:26.196Z,3.10
2024-02-01T21:13:14.399Z,3.63
2024-02-01T21:16:02.501Z,4.03
2024-02-01T21:18:49.060Z,4.07
2024-02-01T21:21:35.785Z,3.27
2024-02-01T21:24:22.830Z,3.07
2024-02-01T21:27:12.388Z,3.93
2024-02-01T21:29:59.053Z,3.30
2024-02-01T21:32:47.346Z,4.30
2024-02-01T21:35:42.682Z,3.97
2024-02-01T21:38:29.252Z,3.37
2024-02-01T21:41:16.744Z,3.20
2024-02-01T21:44:03.755Z,3.77
2024-02-01T21:46:51.161Z,3.63
2024-02-01T21:49:39.025Z,3.47
2024-02-01T21:52:25.710Z,3.37
2024-02-01T21:55:12.554Z,3.23
2024-02-01T21:57:59.271Z,3.13
2024-02-01T22:00:45.783Z,2.90
2024-02-01T22:03:32.571Z,3.40
2024-02-01T22:06:20.889Z,3.70
2024-02-01T22:09:07.420Z,4.20
2024-02-01T22:11:53.626Z,3.07
2024-02-01T22:14:40.054Z,4.03
2024-02-01T22:17:27.004Z,3.47
2024-02-01T22:20:13.579Z,3.37
2024-02-01T22:23:01.488Z,4.00
2024-02-01T22:25:48.726Z,3.57
2024-02-01T22:28:35.158Z,4.60
2024-02-01T22:31:21.691Z,3.80
2024-02-01T22:34:09.139Z,3.80
2024-02-01T22:36:55.904Z,3.70
2024-02-01T22:39:46.361Z,3.93
2024-02-01T22:42:33.227Z,3.90
2024-02-01T22:45:19.847Z,3.63
2024-02-01T22:48:08.922Z,4.50
2024-02-01T22:50:56.444Z,3.60
2024-02-01T22:53:43.256Z,3.97
2024-02-01T22:56:31.648Z,4.47
2024-02-01T22:59:19.126Z,3.23
2024-02-01T23:02:06.165Z,4.60
2024-02-01T23:04:52.820Z,3.50
2024-02-01T23:07:39.239Z,4.50
2024-02-01T23:10:25.796Z,5.20
2024-02-01T23:13:14.261Z,5.63
2024-02-01T23:16:03.656Z,5.27
2024-02-01T23:18:50.702Z,5.17
2024-02-01T23:21:37.573Z,4.23
2024-02-01T23:24:24.514Z,5.00
2024-02-01T23:27:10.902Z,5.40
2024-02-01T23:29:58.845Z,5.00
2024-02-01T23:32:45.548Z,4.63
2024-02-01T23:35:32.291Z,4.10
2024-02-01T23:38:18.891Z,4.33
2024-02-01T23:41:05.769Z,3.63
2024-02-01T23:43:52.122Z,4.33
2024-02-01T23:46:40.095Z,3.83
2024-02-01T23:49:29.452Z,4.30
2024-02-01T23:52:17.999Z,3.77
2024-02-01T23:55:04.756Z,3.90
2024-02-01T23:57:51.675Z,3.23
